sensor_id;sensor_type;location;lat;lon;timestamp;P1;durP1;ratioP1;P2;durP2;ratioP2
18893;SDS011;9579;49.488;8.226;2023-10-13T00:00:08;10.70;;;7.50;;
18893;SDS011;9579;49.488;8.226;2023-10-13T00:03:11;9.65;;;7.25;;
18893;SDS011;9579;49.488;8.226;2023-10-13T00:06:01;9.68;;;7.70;;
18893;SDS011;9579;49.488;8.226;2023-10-13T00:08:48;7.78;;;6.97;;
18893;SDS011;9579;49.488;8.226;2023-10-13T00:11:35;8.63;;;7.25;;
18893;SDS011;9579;49.488;8.226;2023-10-13T00:14:22;12.63;;;7.38;;
18893;SDS011;9579;49.488;8.226;2023-10-13T00:17:18;8.52;;;6.72;;
18893;SDS011;9579;49.488;8.226;2023-10-13T00:20:06;10.35;;;7.20;;
18893;SDS011;9579;49.488;8.226;2023-10-13T00:23:01;10.50;;;7.15;;
18893;SDS011;9579;49.488;8.226;2023-10-13T00:25:49;8.60;;;7.68;;
18893;SDS011;9579;49.488;8.226;2023-10-13T00:28:42;8.05;;;7.03;;
18893;SDS011;9579;49.488;8.226;2023-10-13T00:31:32;8.23;;;6.90;;
18893;SDS011;9579;49.488;8.226;2023-10-13T00:34:22;11.98;;;7.80;;
18893;SDS011;9579;49.488;8.226;2023-10-13T00:37:14;10.80;;;7.97;;
18893;SDS011;9579;49.488;8.226;2023-10-13T00:40:05;9.35;;;7.60;;
18893;SDS011;9579;49.488;8.226;2023-10-13T00:43:02;11.40;;;7.57;;
18893;SDS011;9579;49.488;8.226;2023-10-13T00:46:10;10.65;;;8.07;;
18893;SDS011;9579;49.488;8.226;2023-10-13T00:48:58;10.10;;;8.00;;
18893;SDS011;9579;49.488;8.226;2023-10-13T00:51:46;9.38;;;7.78;;
18893;SDS011;9579;49.488;8.226;2023-10-13T00:54:34;11.63;;;7.93;;
18893;SDS011;9579;49.488;8.226;2023-10-13T00:57:24;9.95;;;8.00;;
18893;SDS011;9579;49.488;8.226;2023-10-13T01:00:11;9.50;;;7.25;;
18893;SDS011;9579;49.488;8.226;2023-10-13T01:03:04;9.70;;;7.43;;
18893;SDS011;9579;49.488;8.226;2023-10-13T01:05:53;8.15;;;7.22;;
18893;SDS011;9579;49.488;8.226;2023-10-13T01:08:44;10.82;;;7.43;;
18893;SDS011;9579;49.488;8.226;2023-10-13T01:11:36;9.88;;;7.18;;
18893;SDS011;9579;49.488;8.226;2023-10-13T01:14:23;11.27;;;7.22;;
18893;SDS011;9579;49.488;8.226;2023-10-13T01:17:12;9.32;;;6.90;;
18893;SDS011;9579;49.488;8.226;2023-10-13T01:19:59;9.85;;;7.25;;
18893;SDS011;9579;49.488;8.226;2023-10-13T01:22:46;11.85;;;7.68;;
18893;SDS011;9579;49.488;8.226;2023-10-13T01:25:42;10.00;;;7.60;;
18893;SDS011;9579;49.488;8.226;2023-10-13T01:28:28;11.80;;;8.05;;
18893;SDS011;9579;49.488;8.226;2023-10-13T01:31:15;9.77;;;7.57;;
18893;SDS011;9579;49.488;8.226;2023-10-13T01:34:10;9.55;;;7.30;;
18893;SDS011;9579;49.488;8.226;2023-10-13T01:36:58;9.35;;;7.55;;
18893;SDS011;9579;49.488;8.226;2023-10-13T01:39:51;10.80;;;7.88;;
18893;SDS011;9579;49.488;8.226;2023-10-13T01:42:39;8.98;;;6.55;;
18893;SDS011;9579;49.488;8.226;2023-10-13T01:45:26;10.00;;;7.60;;
18893;SDS011;9579;49.488;8.226;2023-10-13T01:48:14;10.80;;;8.30;;
18893;SDS011;9579;49.488;8.226;2023-10-13T01:51:03;10.07;;;8.15;;
18893;SDS011;9579;49.488;8.226;2023-10-13T01:53:51;8.85;;;7.75;;
18893;SDS011;9579;49.488;8.226;2023-10-13T01:56:41;9.18;;;7.70;;
18893;SDS011;9579;49.488;8.226;2023-10-13T01:59:30;12.32;;;8.30;;
18893;SDS011;9579;49.488;8.226;2023-10-13T02:02:17;9.82;;;8.05;;
18893;SDS011;9579;49.488;8.226;2023-10-13T02:05:14;8.75;;;6.95;;
18893;SDS011;9579;49.488;8.226;2023-10-13T02:08:02;9.85;;;7.65;;
18893;SDS011;9579;49.488;8.226;2023-10-13T02:10:51;10.60;;;7.93;;
18893;SDS011;9579;49.488;8.226;2023-10-13T02:13:39;9.82;;;7.95;;
18893;SDS011;9579;49.488;8.226;2023-10-13T02:16:35;10.77;;;8.82;;
18893;SDS011;9579;49.488;8.226;2023-10-13T02:19:22;12.48;;;7.88;;
18893;SDS011;9579;49.488;8.226;2023-10-13T02:22:12;10.73;;;7.90;;
18893;SDS011;9579;49.488;8.226;2023-10-13T02:25:13;11.68;;;7.80;;
18893;SDS011;9579;49.488;8.226;2023-10-13T02:28:02;9.88;;;7.65;;
18893;SDS011;9579;49.488;8.226;2023-10-13T02:30:53;13.23;;;7.57;;
18893;SDS011;9579;49.488;8.226;2023-10-13T02:33:44;8.35;;;7.45;;
18893;SDS011;9579;49.488;8.226;2023-10-13T02:36:33;10.45;;;7.68;;
18893;SDS011;9579;49.488;8.226;2023-10-13T02:39:23;11.60;;;8.25;;
18893;SDS011;9579;49.488;8.226;2023-10-13T02:42:10;10.05;;;6.93;;
18893;SDS011;9579;49.488;8.226;2023-10-13T02:45:08;9.13;;;7.00;;
18893;SDS011;9579;49.488;8.226;2023-10-13T02:47:57;11.07;;;7.30;;
18893;SDS011;9579;49.488;8.226;2023-10-13T02:50:59;9.05;;;6.85;;
18893;SDS011;9579;49.488;8.226;2023-10-13T02:53:51;9.77;;;6.80;;
18893;SDS011;9579;49.488;8.226;2023-10-13T02:56:38;8.93;;;7.20;;
18893;SDS011;9579;49.488;8.226;2023-10-13T02:59:34;11.32;;;6.90;;
18893;SDS011;9579;49.488;8.226;2023-10-13T03:02:25;8.73;;;7.38;;
18893;SDS011;9579;49.488;8.226;2023-10-13T03:05:13;10.68;;;7.47;;
18893;SDS011;9579;49.488;8.226;2023-10-13T03:08:03;9.05;;;7.28;;
18893;SDS011;9579;49.488;8.226;2023-10-13T03:10:49;7.93;;;7.05;;
18893;SDS011;9579;49.488;8.226;2023-10-13T03:13:39;8.57;;;7.50;;
18893;SDS011;9579;49.488;8.226;2023-10-13T03:16:29;12.57;;;7.75;;
18893;SDS011;9579;49.488;8.226;2023-10-13T03:19:17;10.07;;;7.93;;
18893;SDS011;9579;49.488;8.226;2023-10-13T03:22:05;10.35;;;8.10;;
18893;SDS011;9579;49.488;8.226;2023-10-13T03:24:56;10.15;;;8.07;;
18893;SDS011;9579;49.488;8.226;2023-10-13T03:27:51;10.13;;;8.13;;
18893;SDS011;9579;49.488;8.226;2023-10-13T03:30:50;13.02;;;8.30;;
18893;SDS011;9579;49.488;8.226;2023-10-13T03:33:38;11.50;;;8.23;;
18893;SDS011;9579;49.488;8.226;2023-10-13T03:36:30;10.60;;;8.32;;
18893;SDS011;9579;49.488;8.226;2023-10-13T03:39:34;9.77;;;7.57;;
18893;SDS011;9579;49.488;8.226;2023-10-13T03:42:26;10.93;;;8.07;;
18893;SDS011;9579;49.488;8.226;2023-10-13T03:45:13;9.82;;;7.25;;
18893;SDS011;9579;49.488;8.226;2023-10-13T03:48:00;11.75;;;8.40;;
18893;SDS011;9579;49.488;8.226;2023-10-13T03:50:54;10.48;;;7.43;;
18893;SDS011;9579;49.488;8.226;2023-10-13T03:53:50;8.57;;;7.60;;
18893;SDS011;9579;49.488;8.226;2023-10-13T03:56:38;9.82;;;7.30;;
18893;SDS011;9579;49.488;8.226;2023-10-13T03:59:27;10.68;;;7.82;;
18893;SDS011;9579;49.488;8.226;2023-10-13T04:02:21;10.43;;;7.43;;
18893;SDS011;9579;49.488;8.226;2023-10-13T04:05:12;10.88;;;7.63;;
18893;SDS011;9579;49.488;8.226;2023-10-13T04:08:19;8.35;;;6.97;;
18893;SDS011;9579;49.488;8.226;2023-10-13T04:11:24;8.43;;;7.30;;
18893;SDS011;9579;49.488;8.226;2023-10-13T04:14:49;9.20;;;7.57;;
18893;SDS011;9579;49.488;8.226;2023-10-13T04:18:00;11.02;;;7.88;;
18893;SDS011;9579;49.488;8.226;2023-10-13T04:20:59;9.98;;;8.13;;
18893;SDS011;9579;49.488;8.226;2023-10-13T04:24:04;9.65;;;7.75;;
18893;SDS011;9579;49.488;8.226;2023-10-13T04:26:54;8.65;;;7.35;;
18893;SDS011;9579;49.488;8.226;2023-10-13T04:30:02;10.75;;;7.43;;
18893;SDS011;9579;49.488;8.226;2023-10-13T04:32:57;10.05;;;7.88;;
18893;SDS011;9579;49.488;8.226;2023-10-13T04:36:02;13.43;;;8.13;;
18893;SDS011;9579;49.488;8.226;2023-10-13T04:38:59;8.73;;;7.20;;
18893;SDS011;9579;49.488;8.226;2023-10-13T04:41:45;10.75;;;7.05;;
18893;SDS011;9579;49.488;8.226;2023-10-13T04:44:44;12.43;;;7.65;;
18893;SDS011;9579;49.488;8.226;2023-10-13T04:47:34;13.40;;;7.70;;
18893;SDS011;9579;49.488;8.226;2023-10-13T04:50:27;8.95;;;7.53;;
18893;SDS011;9579;49.488;8.226;2023-10-13T04:53:26;8.75;;;7.03;;
18893;SDS011;9579;49.488;8.226;2023-10-13T04:56:15;10.48;;;7.15;;
18893;SDS011;9579;49.488;8.226;2023-10-13T04:59:16;10.27;;;8.05;;
18893;SDS011;9579;49.488;8.226;2023-10-13T05:02:20;9.43;;;7.38;;
18893;SDS011;9579;49.488;8.226;2023-10-13T05:05:26;9.10;;;7.13;;
18893;SDS011;9579;49.488;8.226;2023-10-13T05:08:49;9.00;;;7.55;;
18893;SDS011;9579;49.488;8.226;2023-10-13T05:11:54;11.07;;;7.63;;
18893;SDS011;9579;49.488;8.226;2023-10-13T05:14:59;8.38;;;7.15;;
18893;SDS011;9579;49.488;8.226;2023-10-13T05:18:03;9.00;;;7.22;;
18893;SDS011;9579;49.488;8.226;2023-10-13T05:21:10;11.20;;;7.13;;
18893;SDS011;9579;49.488;8.226;2023-10-13T05:24:23;10.25;;;7.10;;
18893;SDS011;9579;49.488;8.226;2023-10-13T05:27:28;12.10;;;7.13;;
18893;SDS011;9579;49.488;8.226;2023-10-13T05:30:32;12.00;;;8.25;;
18893;SDS011;9579;49.488;8.226;2023-10-13T05:33:37;11.27;;;7.85;;
18893;SDS011;9579;49.488;8.226;2023-10-13T05:36:43;8.02;;;6.80;;
18893;SDS011;9579;49.488;8.226;2023-10-13T05:39:47;9.48;;;7.63;;
18893;SDS011;9579;49.488;8.226;2023-10-13T05:43:04;8.10;;;7.10;;
18893;SDS011;9579;49.488;8.226;2023-10-13T05:46:08;7.38;;;6.65;;
18893;SDS011;9579;49.488;8.226;2023-10-13T05:49:20;8.35;;;6.85;;
18893;SDS011;9579;49.488;8.226;2023-10-13T05:52:36;9.15;;;6.88;;
18893;SDS011;9579;49.488;8.226;2023-10-13T05:55:41;7.68;;;6.82;;
18893;SDS011;9579;49.488;8.226;2023-10-13T05:58:46;9.10;;;7.10;;
18893;SDS011;9579;49.488;8.226;2023-10-13T06:01:50;9.93;;;6.90;;
18893;SDS011;9579;49.488;8.226;2023-10-13T06:04:55;12.15;;;7.03;;
18893;SDS011;9579;49.488;8.226;2023-10-13T06:08:01;11.90;;;7.68;;
18893;SDS011;9579;49.488;8.226;2023-10-13T06:11:05;8.70;;;7.68;;
18893;SDS011;9579;49.488;8.226;2023-10-13T06:14:10;10.98;;;8.13;;
18893;SDS011;9579;49.488;8.226;2023-10-13T06:17:14;8.00;;;6.80;;
18893;SDS011;9579;49.488;8.226;2023-10-13T06:20:19;10.70;;;7.20;;
18893;SDS011;9579;49.488;8.226;2023-10-13T06:23:25;8.90;;;7.60;;
18893;SDS011;9579;49.488;8.226;2023-10-13T06:26:30;8.25;;;7.35;;
18893;SDS011;9579;49.488;8.226;2023-10-13T06:29:34;10.02;;;8.27;;
18893;SDS011;9579;49.488;8.226;2023-10-13T06:32:22;8.65;;;7.75;;
18893;SDS011;9579;49.488;8.226;2023-10-13T06:35:11;10.02;;;7.82;;
18893;SDS011;9579;49.488;8.226;2023-10-13T06:38:08;10.10;;;7.93;;
18893;SDS011;9579;49.488;8.226;2023-10-13T06:41:07;7.95;;;7.20;;
18893;SDS011;9579;49.488;8.226;2023-10-13T06:44:05;9.05;;;7.25;;
18893;SDS011;9579;49.488;8.226;2023-10-13T06:47:00;9.00;;;7.38;;
18893;SDS011;9579;49.488;8.226;2023-10-13T06:49:49;8.23;;;7.40;;
18893;SDS011;9579;49.488;8.226;2023-10-13T06:52:36;8.55;;;7.25;;
18893;SDS011;9579;49.488;8.226;2023-10-13T06:55:24;8.93;;;7.03;;
18893;SDS011;9579;49.488;8.226;2023-10-13T06:58:14;8.57;;;7.18;;
18893;SDS011;9579;49.488;8.226;2023-10-13T07:01:06;8.63;;;7.10;;
18893;SDS011;9579;49.488;8.226;2023-10-13T07:04:00;8.77;;;7.88;;
18893;SDS011;9579;49.488;8.226;2023-10-13T07:06:49;7.80;;;6.95;;
18893;SDS011;9579;49.488;8.226;2023-10-13T07:09:36;7.10;;;6.50;;
18893;SDS011;9579;49.488;8.226;2023-10-13T07:12:26;9.40;;;6.93;;
18893;SDS011;9579;49.488;8.226;2023-10-13T07:15:14;8.15;;;7.35;;
18893;SDS011;9579;49.488;8.226;2023-10-13T07:18:05;9.93;;;7.05;;
18893;SDS011;9579;49.488;8.226;2023-10-13T07:20:52;9.18;;;7.22;;
18893;SDS011;9579;49.488;8.226;2023-10-13T07:23:43;10.10;;;7.32;;
18893;SDS011;9579;49.488;8.226;2023-10-13T07:26:45;7.32;;;6.63;;
18893;SDS011;9579;49.488;8.226;2023-10-13T07:29:42;9.63;;;6.85;;
18893;SDS011;9579;49.488;8.226;2023-10-13T07:32:32;8.85;;;6.38;;
18893;SDS011;9579;49.488;8.226;2023-10-13T07:35:20;7.78;;;6.97;;
18893;SDS011;9579;49.488;8.226;2023-10-13T07:38:10;7.05;;;6.32;;
18893;SDS011;9579;49.488;8.226;2023-10-13T07:40:58;7.13;;;6.32;;
18893;SDS011;9579;49.488;8.226;2023-10-13T07:43:52;8.95;;;5.93;;
18893;SDS011;9579;49.488;8.226;2023-10-13T07:46:50;6.93;;;6.20;;
18893;SDS011;9579;49.488;8.226;2023-10-13T07:49:46;6.57;;;5.97;;
18893;SDS011;9579;49.488;8.226;2023-10-13T07:52:36;7.28;;;6.15;;
18893;SDS011;9579;49.488;8.226;2023-10-13T07:55:26;6.97;;;6.10;;
18893;SDS011;9579;49.488;8.226;2023-10-13T07:58:17;7.72;;;5.60;;
18893;SDS011;9579;49.488;8.226;2023-10-13T08:01:05;7.07;;;6.38;;
18893;SDS011;9579;49.488;8.226;2023-10-13T08:04:02;6.43;;;5.78;;
18893;SDS011;9579;49.488;8.226;2023-10-13T08:06:58;8.38;;;6.35;;
18893;SDS011;9579;49.488;8.226;2023-10-13T08:09:57;8.00;;;6.43;;
18893;SDS011;9579;49.488;8.226;2023-10-13T08:12:44;9.50;;;6.10;;
18893;SDS011;9579;49.488;8.226;2023-10-13T08:15:31;7.07;;;6.18;;
18893;SDS011;9579;49.488;8.226;2023-10-13T08:18:18;8.00;;;6.10;;
18893;SDS011;9579;49.488;8.226;2023-10-13T08:21:15;6.05;;;5.45;;
18893;SDS011;9579;49.488;8.226;2023-10-13T08:24:09;6.28;;;5.68;;
18893;SDS011;9579;49.488;8.226;2023-10-13T08:27:00;6.95;;;5.50;;
18893;SDS011;9579;49.488;8.226;2023-10-13T08:30:16;7.25;;;6.05;;
18893;SDS011;9579;49.488;8.226;2023-10-13T08:33:14;6.82;;;6.18;;
18893;SDS011;9579;49.488;8.226;2023-10-13T08:36:05;9.00;;;5.72;;
18893;SDS011;9579;49.488;8.226;2023-10-13T08:39:15;6.93;;;5.90;;
18893;SDS011;9579;49.488;8.226;2023-10-13T08:42:28;7.53;;;5.82;;
18893;SDS011;9579;49.488;8.226;2023-10-13T08:45:36;6.88;;;5.85;;
18893;SDS011;9579;49.488;8.226;2023-10-13T08:48:45;6.03;;;5.43;;
18893;SDS011;9579;49.488;8.226;2023-10-13T08:51:35;6.90;;;6.03;;
18893;SDS011;9579;49.488;8.226;2023-10-13T08:54:36;7.90;;;6.18;;
18893;SDS011;9579;49.488;8.226;2023-10-13T08:57:31;7.78;;;5.88;;
18893;SDS011;9579;49.488;8.226;2023-10-13T09:00:21;5.97;;;5.38;;
18893;SDS011;9579;49.488;8.226;2023-10-13T09:03:14;6.45;;;5.45;;
18893;SDS011;9579;49.488;8.226;2023-10-13T09:06:23;8.25;;;5.82;;
18893;SDS011;9579;49.488;8.226;2023-10-13T09:09:11;7.95;;;5.68;;
18893;SDS011;9579;49.488;8.226;2023-10-13T09:12:13;9.20;;;5.70;;
18893;SDS011;9579;49.488;8.226;2023-10-13T09:15:03;8.90;;;5.60;;
18893;SDS011;9579;49.488;8.226;2023-10-13T09:17:52;7.22;;;5.90;;
18893;SDS011;9579;49.488;8.226;2023-10-13T09:20:44;6.22;;;5.50;;
18893;SDS011;9579;49.488;8.226;2023-10-13T09:23:31;7.07;;;5.88;;
18893;SDS011;9579;49.488;8.226;2023-10-13T09:26:33;6.70;;;5.85;;
18893;SDS011;9579;49.488;8.226;2023-10-13T09:29:22;8.63;;;5.60;;
18893;SDS011;9579;49.488;8.226;2023-10-13T09:32:10;8.40;;;6.32;;
18893;SDS011;9579;49.488;8.226;2023-10-13T09:34:59;6.18;;;5.57;;
18893;SDS011;9579;49.488;8.226;2023-10-13T09:37:47;7.07;;;5.72;;
18893;SDS011;9579;49.488;8.226;2023-10-13T09:40:35;6.35;;;5.70;;
18893;SDS011;9579;49.488;8.226;2023-10-13T09:43:23;7.47;;;5.25;;
18893;SDS011;9579;49.488;8.226;2023-10-13T09:46:15;8.20;;;5.60;;
18893;SDS011;9579;49.488;8.226;2023-10-13T09:49:11;6.93;;;5.78;;
18893;SDS011;9579;49.488;8.226;2023-10-13T09:52:01;8.88;;;5.68;;
18893;SDS011;9579;49.488;8.226;2023-10-13T09:54:51;6.32;;;5.72;;
18893;SDS011;9579;49.488;8.226;2023-10-13T09:57:47;7.28;;;5.78;;
18893;SDS011;9579;49.488;8.226;2023-10-13T10:00:45;6.15;;;5.45;;
18893;SDS011;9579;49.488;8.226;2023-10-13T10:03:45;6.43;;;5.50;;
18893;SDS011;9579;49.488;8.226;2023-10-13T10:06:36;8.80;;;6.03;;
18893;SDS011;9579;49.488;8.226;2023-10-13T10:09:30;7.50;;;5.20;;
18893;SDS011;9579;49.488;8.226;2023-10-13T10:12:22;9.70;;;5.88;;
18893;SDS011;9579;49.488;8.226;2023-10-13T10:15:24;6.22;;;5.60;;
18893;SDS011;9579;49.488;8.226;2023-10-13T10:18:19;7.57;;;5.22;;
18893;SDS011;9579;49.488;8.226;2023-10-13T10:21:08;6.82;;;5.78;;
18893;SDS011;9579;49.488;8.226;2023-10-13T10:23:56;6.30;;;5.63;;
18893;SDS011;9579;49.488;8.226;2023-10-13T10:26:49;6.18;;;5.38;;
18893;SDS011;9579;49.488;8.226;2023-10-13T10:29:38;6.63;;;5.50;;
18893;SDS011;9579;49.488;8.226;2023-10-13T10:32:33;8.32;;;5.85;;
18893;SDS011;9579;49.488;8.226;2023-10-13T10:35:22;5.78;;;5.00;;
18893;SDS011;9579;49.488;8.226;2023-10-13T10:38:17;7.03;;;5.55;;
18893;SDS011;9579;49.488;8.226;2023-10-13T10:41:24;5.50;;;5.00;;
18893;SDS011;9579;49.488;8.226;2023-10-13T10:44:15;6.30;;;5.30;;
18893;SDS011;9579;49.488;8.226;2023-10-13T10:47:09;6.05;;;5.45;;
18893;SDS011;9579;49.488;8.226;2023-10-13T10:50:05;6.32;;;5.30;;
18893;SDS011;9579;49.488;8.226;2023-10-13T10:53:04;7.10;;;5.05;;
18893;SDS011;9579;49.488;8.226;2023-10-13T10:55:55;5.82;;;5.00;;
18893;SDS011;9579;49.488;8.226;2023-10-13T10:58:53;6.18;;;5.43;;
18893;SDS011;9579;49.488;8.226;2023-10-13T11:01:45;7.13;;;4.90;;
18893;SDS011;9579;49.488;8.226;2023-10-13T11:04:36;7.75;;;5.60;;
18893;SDS011;9579;49.488;8.226;2023-10-13T11:07:36;6.10;;;5.50;;
18893;SDS011;9579;49.488;8.226;2023-10-13T11:10:23;6.10;;;5.50;;
18893;SDS011;9579;49.488;8.226;2023-10-13T11:13:14;6.15;;;5.20;;
18893;SDS011;9579;49.488;8.226;2023-10-13T11:16:06;5.35;;;4.85;;
18893;SDS011;9579;49.488;8.226;2023-10-13T11:19:00;6.85;;;5.38;;
18893;SDS011;9579;49.488;8.226;2023-10-13T11:21:48;5.57;;;5.07;;
18893;SDS011;9579;49.488;8.226;2023-10-13T11:24:39;5.90;;;5.03;;
18893;SDS011;9579;49.488;8.226;2023-10-13T11:27:28;7.47;;;5.10;;
18893;SDS011;9579;49.488;8.226;2023-10-13T11:30:32;6.22;;;5.35;;
18893;SDS011;9579;49.488;8.226;2023-10-13T11:33:27;6.55;;;5.28;;
18893;SDS011;9579;49.488;8.226;2023-10-13T11:36:14;5.95;;;5.10;;
18893;SDS011;9579;49.488;8.226;2023-10-13T11:39:07;5.50;;;5.00;;
18893;SDS011;9579;49.488;8.226;2023-10-13T11:41:54;6.47;;;5.05;;
18893;SDS011;9579;49.488;8.226;2023-10-13T11:44:41;6.03;;;5.10;;
18893;SDS011;9579;49.488;8.226;2023-10-13T11:47:30;5.75;;;5.07;;
18893;SDS011;9579;49.488;8.226;2023-10-13T11:50:33;6.22;;;5.10;;
18893;SDS011;9579;49.488;8.226;2023-10-13T11:53:21;8.00;;;5.65;;
18893;SDS011;9579;49.488;8.226;2023-10-13T11:56:08;5.60;;;5.03;;
18893;SDS011;9579;49.488;8.226;2023-10-13T11:58:55;6.28;;;5.28;;
18893;SDS011;9579;49.488;8.226;2023-10-13T12:01:47;5.65;;;5.10;;
18893;SDS011;9579;49.488;8.226;2023-10-13T12:04:54;9.18;;;5.47;;
18893;SDS011;9579;49.488;8.226;2023-10-13T12:07:42;6.57;;;5.20;;
18893;SDS011;9579;49.488;8.226;2023-10-13T12:10:33;6.80;;;5.00;;
18893;SDS011;9579;49.488;8.226;2023-10-13T12:13:34;7.30;;;5.43;;
18893;SDS011;9579;49.488;8.226;2023-10-13T12:16:21;5.97;;;4.90;;
18893;SDS011;9579;49.488;8.226;2023-10-13T12:19:08;8.05;;;4.90;;
18893;SDS011;9579;49.488;8.226;2023-10-13T12:21:58;7.70;;;5.10;;
18893;SDS011;9579;49.488;8.226;2023-10-13T12:24:50;6.25;;;4.63;;
18893;SDS011;9579;49.488;8.226;2023-10-13T12:27:39;7.28;;;4.93;;
18893;SDS011;9579;49.488;8.226;2023-10-13T12:30:33;6.05;;;5.30;;
18893;SDS011;9579;49.488;8.226;2023-10-13T12:33:33;8.00;;;4.40;;
18893;SDS011;9579;49.488;8.226;2023-10-13T12:36:25;4.75;;;4.28;;
18893;SDS011;9579;49.488;8.226;2023-10-13T12:39:27;6.43;;;4.78;;
18893;SDS011;9579;49.488;8.226;2023-10-13T12:42:32;5.55;;;4.60;;
18893;SDS011;9579;49.488;8.226;2023-10-13T12:45:38;5.32;;;4.55;;
18893;SDS011;9579;49.488;8.226;2023-10-13T12:48:42;6.50;;;4.72;;
18893;SDS011;9579;49.488;8.226;2023-10-13T12:51:49;6.40;;;4.53;;
18893;SDS011;9579;49.488;8.226;2023-10-13T12:54:40;5.97;;;4.78;;
18893;SDS011;9579;49.488;8.226;2023-10-13T12:57:35;6.93;;;4.72;;
18893;SDS011;9579;49.488;8.226;2023-10-13T13:00:28;8.90;;;4.85;;
18893;SDS011;9579;49.488;8.226;2023-10-13T13:03:18;5.80;;;4.38;;
18893;SDS011;9579;49.488;8.226;2023-10-13T13:06:06;5.78;;;4.40;;
18893;SDS011;9579;49.488;8.226;2023-10-13T13:08:54;7.35;;;4.68;;
18893;SDS011;9579;49.488;8.226;2023-10-13T13:11:43;5.57;;;4.05;;
18893;SDS011;9579;49.488;8.226;2023-10-13T13:14:34;7.72;;;4.30;;
18893;SDS011;9579;49.488;8.226;2023-10-13T13:17:21;5.38;;;4.78;;
18893;SDS011;9579;49.488;8.226;2023-10-13T13:20:08;6.80;;;4.40;;
18893;SDS011;9579;49.488;8.226;2023-10-13T13:23:11;7.43;;;4.10;;
18893;SDS011;9579;49.488;8.226;2023-10-13T13:25:59;7.30;;;4.60;;
18893;SDS011;9579;49.488;8.226;2023-10-13T13:28:48;6.05;;;4.50;;
18893;SDS011;9579;49.488;8.226;2023-10-13T13:31:36;7.30;;;4.15;;
18893;SDS011;9579;49.488;8.226;2023-10-13T13:34:28;6.65;;;4.32;;
18893;SDS011;9579;49.488;8.226;2023-10-13T13:37:15;6.68;;;4.10;;
18893;SDS011;9579;49.488;8.226;2023-10-13T13:40:05;8.45;;;4.65;;
18893;SDS011;9579;49.488;8.226;2023-10-13T13:43:00;9.25;;;4.65;;
18893;SDS011;9579;49.488;8.226;2023-10-13T13:45:48;9.30;;;4.07;;
18893;SDS011;9579;49.488;8.226;2023-10-13T13:48:35;6.88;;;4.43;;
18893;SDS011;9579;49.488;8.226;2023-10-13T13:51:24;6.30;;;4.63;;
18893;SDS011;9579;49.488;8.226;2023-10-13T13:54:16;6.50;;;4.47;;
18893;SDS011;9579;49.488;8.226;2023-10-13T13:57:06;6.78;;;4.63;;
18893;SDS011;9579;49.488;8.226;2023-10-13T13:59:53;6.22;;;4.32;;
18893;SDS011;9579;49.488;8.226;2023-10-13T14:02:44;6.82;;;4.07;;
18893;SDS011;9579;49.488;8.226;2023-10-13T14:05:32;8.88;;;4.82;;
18893;SDS011;9579;49.488;8.226;2023-10-13T14:08:19;5.45;;;4.85;;
18893;SDS011;9579;49.488;8.226;2023-10-13T14:11:07;7.18;;;5.00;;
18893;SDS011;9579;49.488;8.226;2023-10-13T14:14:07;6.95;;;4.57;;
18893;SDS011;9579;49.488;8.226;2023-10-13T14:17:14;7.28;;;4.60;;
18893;SDS011;9579;49.488;8.226;2023-10-13T14:20:02;9.93;;;4.57;;
18893;SDS011;9579;49.488;8.226;2023-10-13T14:23:00;7.93;;;4.82;;
18893;SDS011;9579;49.488;8.226;2023-10-13T14:25:52;6.95;;;4.78;;
18893;SDS011;9579;49.488;8.226;2023-10-13T14:28:41;5.50;;;4.50;;
18893;SDS011;9579;49.488;8.226;2023-10-13T14:31:37;6.32;;;4.00;;
18893;SDS011;9579;49.488;8.226;2023-10-13T14:34:24;8.10;;;3.92;;
18893;SDS011;9579;49.488;8.226;2023-10-13T14:37:13;4.55;;;3.72;;
18893;SDS011;9579;49.488;8.226;2023-10-13T14:40:06;7.35;;;3.40;;
18893;SDS011;9579;49.488;8.226;2023-10-13T14:43:01;5.15;;;3.67;;
18893;SDS011;9579;49.488;8.226;2023-10-13T14:45:49;5.72;;;3.92;;
18893;SDS011;9579;49.488;8.226;2023-10-13T14:48:36;6.40;;;4.13;;
18893;SDS011;9579;49.488;8.226;2023-10-13T14:51:24;4.90;;;3.50;;
18893;SDS011;9579;49.488;8.226;2023-10-13T14:54:13;6.40;;;4.32;;
18893;SDS011;9579;49.488;8.226;2023-10-13T14:57:00;4.45;;;3.70;;
18893;SDS011;9579;49.488;8.226;2023-10-13T14:59:48;6.80;;;3.90;;
18893;SDS011;9579;49.488;8.226;2023-10-13T15:02:35;5.28;;;3.90;;
18893;SDS011;9579;49.488;8.226;2023-10-13T15:05:23;4.35;;;3.55;;
18893;SDS011;9579;49.488;8.226;2023-10-13T15:08:10;4.05;;;3.60;;
18893;SDS011;9579;49.488;8.226;2023-10-13T15:10:59;6.57;;;3.55;;
18893;SDS011;9579;49.488;8.226;2023-10-13T15:13:57;3.80;;;3.50;;
18893;SDS011;9579;49.488;8.226;2023-10-13T15:16:46;4.53;;;3.50;;
18893;SDS011;9579;49.488;8.226;2023-10-13T15:19:33;6.28;;;3.78;;
18893;SDS011;9579;49.488;8.226;2023-10-13T15:22:24;8.80;;;3.75;;
18893;SDS011;9579;49.488;8.226;2023-10-13T15:25:13;3.58;;;3.28;;
18893;SDS011;9579;49.488;8.226;2023-10-13T15:28:07;7.85;;;4.13;;
18893;SDS011;9579;49.488;8.226;2023-10-13T15:30:55;9.13;;;3.95;;
18893;SDS011;9579;49.488;8.226;2023-10-13T15:33:55;5.43;;;4.00;;
18893;SDS011;9579;49.488;8.226;2023-10-13T15:36:42;6.28;;;3.95;;
18893;SDS011;9579;49.488;8.226;2023-10-13T15:39:30;5.57;;;4.10;;
18893;SDS011;9579;49.488;8.226;2023-10-13T15:42:17;4.63;;;4.00;;
18893;SDS011;9579;49.488;8.226;2023-10-13T15:45:08;4.50;;;4.07;;
18893;SDS011;9579;49.488;8.226;2023-10-13T15:48:03;4.55;;;3.90;;
18893;SDS011;9579;49.488;8.226;2023-10-13T15:50:50;9.32;;;4.57;;
18893;SDS011;9579;49.488;8.226;2023-10-13T15:53:37;7.78;;;4.13;;
18893;SDS011;9579;49.488;8.226;2023-10-13T15:56:24;6.65;;;4.32;;
18893;SDS011;9579;49.488;8.226;2023-10-13T15:59:12;7.25;;;4.10;;
18893;SDS011;9579;49.488;8.226;2023-10-13T16:02:00;6.55;;;4.07;;
18893;SDS011;9579;49.488;8.226;2023-10-13T16:04:52;5.07;;;4.00;;
18893;SDS011;9579;49.488;8.226;2023-10-13T16:07:44;5.47;;;4.15;;
18893;SDS011;9579;49.488;8.226;2023-10-13T16:10:31;5.50;;;4.07;;
18893;SDS011;9579;49.488;8.226;2023-10-13T16:13:18;5.85;;;4.45;;
18893;SDS011;9579;49.488;8.226;2023-10-13T16:16:05;5.30;;;3.97;;
18893;SDS011;9579;49.488;8.226;2023-10-13T16:19:02;6.07;;;3.80;;
18893;SDS011;9579;49.488;8.226;2023-10-13T16:21:50;4.88;;;3.75;;
18893;SDS011;9579;49.488;8.226;2023-10-13T16:24:38;8.73;;;4.50;;
18893;SDS011;9579;49.488;8.226;2023-10-13T16:27:25;6.70;;;4.10;;
18893;SDS011;9579;49.488;8.226;2023-10-13T16:30:12;7.57;;;4.10;;
18893;SDS011;9579;49.488;8.226;2023-10-13T16:33:01;6.25;;;4.10;;
18893;SDS011;9579;49.488;8.226;2023-10-13T16:35:50;5.38;;;4.10;;
18893;SDS011;9579;49.488;8.226;2023-10-13T16:38:39;5.65;;;4.50;;
18893;SDS011;9579;49.488;8.226;2023-10-13T16:41:30;7.55;;;4.40;;
18893;SDS011;9579;49.488;8.226;2023-10-13T16:44:18;4.68;;;3.78;;
18893;SDS011;9579;49.488;8.226;2023-10-13T16:47:10;6.28;;;4.38;;
18893;SDS011;9579;49.488;8.226;2023-10-13T16:49:59;6.63;;;4.40;;
18893;SDS011;9579;49.488;8.226;2023-10-13T16:52:49;7.60;;;4.32;;
18893;SDS011;9579;49.488;8.226;2023-10-13T16:55:36;6.93;;;4.35;;
18893;SDS011;9579;49.488;8.226;2023-10-13T16:58:27;6.22;;;4.68;;
18893;SDS011;9579;49.488;8.226;2023-10-13T17:01:15;8.48;;;4.65;;
18893;SDS011;9579;49.488;8.226;2023-10-13T17:04:03;7.18;;;4.35;;
18893;SDS011;9579;49.488;8.226;2023-10-13T17:06:50;8.23;;;4.47;;
18893;SDS011;9579;49.488;8.226;2023-10-13T17:09:39;6.47;;;4.43;;
18893;SDS011;9579;49.488;8.226;2023-10-13T17:12:26;7.28;;;4.43;;
18893;SDS011;9579;49.488;8.226;2023-10-13T17:15:14;6.25;;;3.85;;
18893;SDS011;9579;49.488;8.226;2023-10-13T17:18:05;5.22;;;4.15;;
18893;SDS011;9579;49.488;8.226;2023-10-13T17:20:52;5.68;;;4.05;;
18893;SDS011;9579;49.488;8.226;2023-10-13T17:23:41;9.45;;;4.50;;
18893;SDS011;9579;49.488;8.226;2023-10-13T17:26:29;6.32;;;4.40;;
18893;SDS011;9579;49.488;8.226;2023-10-13T17:29:16;8.02;;;4.20;;
18893;SDS011;9579;49.488;8.226;2023-10-13T17:32:08;6.22;;;4.63;;
18893;SDS011;9579;49.488;8.226;2023-10-13T17:34:56;6.18;;;4.30;;